sensor_id;sensor_type;location;lat;lon;timestamp;temperature;humidity
71649;SHT31;70112;45.624;11.760;2023-06-22T00:02:16;25.24;67.70
71649;SHT31;70112;45.624;11.760;2023-06-22T00:04:42;25.20;67.77
71649;SHT31;70112;45.624;11.760;2023-06-22T00:07:08;25.15;68.00
71649;SHT31;70112;45.624;11.760;2023-06-22T00:09:34;25.08;68.43
71649;SHT31;70112;45.624;11.760;2023-06-22T00:12:00;25.02;68.71
71649;SHT31;70112;45.624;11.760;2023-06-22T00:14:26;24.94;68.76
71649;SHT31;70112;45.624;11.760;2023-06-22T00:16:51;24.88;69.24
71649;SHT31;70112;45.624;11.760;2023-06-22T00:19:22;24.80;69.76
71649;SHT31;70112;45.624;11.760;2023-06-22T00:21:50;24.74;70.02
71649;SHT31;70112;45.624;11.760;2023-06-22T00:24:19;24.68;70.45
71649;SHT31;70112;45.624;11.760;2023-06-22T00:26:46;24.63;70.67
71649;SHT31;70112;45.624;11.760;2023-06-22T00:29:13;24.59;70.80
71649;SHT31;70112;45.624;11.760;2023-06-22T00:31:38;24.55;70.94
71649;SHT31;70112;45.624;11.760;2023-06-22T00:34:04;24.52;70.94
71649;SHT31;70112;45.624;11.760;2023-06-22T00:36:33;24.55;70.89
71649;SHT31;70112;45.624;11.760;2023-06-22T00:38:59;24.54;70.89
71649;SHT31;70112;45.624;11.760;2023-06-22T00:41:25;24.53;70.88
71649;SHT31;70112;45.624;11.760;2023-06-22T00:43:53;24.53;70.86
71649;SHT31;70112;45.624;11.760;2023-06-22T00:46:20;24.51;70.78
71649;SHT31;70112;45.624;11.760;2023-06-22T00:48:47;24.49;70.68
71649;SHT31;70112;45.624;11.760;2023-06-22T00:51:14;24.47;70.79
71649;SHT31;70112;45.624;11.760;2023-06-22T00:53:39;24.39;70.95
71649;SHT31;70112;45.624;11.760;2023-06-22T00:56:06;24.33;70.99
71649;SHT31;70112;45.624;11.760;2023-06-22T00:58:34;24.30;71.01
71649;SHT31;70112;45.624;11.760;2023-06-22T01:01:01;24.30;70.92
71649;SHT31;70112;45.624;11.760;2023-06-22T01:03:27;24.30;70.82
71649;SHT31;70112;45.624;11.760;2023-06-22T01:05:53;24.28;70.99
71649;SHT31;70112;45.624;11.760;2023-06-22T01:08:42;24.25;71.10
71649;SHT31;70112;45.624;11.760;2023-06-22T01:11:25;24.26;71.16
71649;SHT31;70112;45.624;11.760;2023-06-22T01:14:09;24.27;71.04
71649;SHT31;70112;45.624;11.760;2023-06-22T01:16:43;24.23;70.98
71649;SHT31;70112;45.624;11.760;2023-06-22T01:19:16;24.20;71.17
71649;SHT31;70112;45.624;11.760;2023-06-22T01:22:20;24.15;71.36
71649;SHT31;70112;45.624;11.760;2023-06-22T01:24:57;24.10;71.57
71649;SHT31;70112;45.624;11.760;2023-06-22T01:30:45;24.04;71.92
71649;SHT31;70112;45.624;11.760;2023-06-22T01:33:13;24.04;71.97
71649;SHT31;70112;45.624;11.760;2023-06-22T01:35:40;24.07;72.05
71649;SHT31;70112;45.624;11.760;2023-06-22T01:38:06;24.10;72.18
71649;SHT31;70112;45.624;11.760;2023-06-22T01:40:33;24.08;72.31
71649;SHT31;70112;45.624;11.760;2023-06-22T01:43:00;24.08;72.40
71649;SHT31;70112;45.624;11.760;2023-06-22T01:45:27;24.02;72.49
71649;SHT31;70112;45.624;11.760;2023-06-22T01:47:53;23.96;72.69
71649;SHT31;70112;45.624;11.760;2023-06-22T01:50:20;23.93;72.80
71649;SHT31;70112;45.624;11.760;2023-06-22T01:52:46;23.89;72.81
71649;SHT31;70112;45.624;11.760;2023-06-22T01:55:11;23.90;72.91
71649;SHT31;70112;45.624;11.760;2023-06-22T01:57:37;23.92;72.95
71649;SHT31;70112;45.624;11.760;2023-06-22T02:00:07;23.89;72.91
71649;SHT31;70112;45.624;11.760;2023-06-22T02:02:52;23.87;73.00
71649;SHT31;70112;45.624;11.760;2023-06-22T02:05:31;23.89;73.11
71649;SHT31;70112;45.624;11.760;2023-06-22T02:08:10;23.92;73.26
71649;SHT31;70112;45.624;11.760;2023-06-22T02:10:43;23.95;73.35
71649;SHT31;70112;45.624;11.760;2023-06-22T02:13:10;23.98;73.29
71649;SHT31;70112;45.624;11.760;2023-06-22T02:15:36;23.95;73.24
71649;SHT31;70112;45.624;11.760;2023-06-22T02:18:02;23.89;73.37
71649;SHT31;70112;45.624;11.760;2023-06-22T02:20:28;23.81;73.61
71649;SHT31;70112;45.624;11.760;2023-06-22T02:22:53;23.72;73.78
71649;SHT31;70112;45.624;11.760;2023-06-22T02:25:19;23.71;73.82
71649;SHT31;70112;45.624;11.760;2023-06-22T02:27:45;23.74;73.88
71649;SHT31;70112;45.624;11.760;2023-06-22T02:30:11;23.67;73.98
71649;SHT31;70112;45.624;11.760;2023-06-22T02:32:37;23.52;74.28
71649;SHT31;70112;45.624;11.760;2023-06-22T02:35:06;23.44;74.49
71649;SHT31;70112;45.624;11.760;2023-06-22T02:37:33;23.50;74.60
71649;SHT31;70112;45.624;11.760;2023-06-22T02:40:04;23.55;74.62
71649;SHT31;70112;45.624;11.760;2023-06-22T02:42:33;23.58;74.75
71649;SHT31;70112;45.624;11.760;2023-06-22T02:44:59;23.57;74.81
71649;SHT31;70112;45.624;11.760;2023-06-22T02:47:25;23.60;74.78
71649;SHT31;70112;45.624;11.760;2023-06-22T02:49:51;23.61;74.78
71649;SHT31;70112;45.624;11.760;2023-06-22T02:52:17;23.60;74.77
71649;SHT31;70112;45.624;11.760;2023-06-22T02:54:42;23.56;75.00
71649;SHT31;70112;45.624;11.760;2023-06-22T02:57:10;23.51;75.18
71649;SHT31;70112;45.624;11.760;2023-06-22T02:59:39;23.51;75.21
71649;SHT31;70112;45.624;11.760;2023-06-22T03:02:08;23.55;75.15
71649;SHT31;70112;45.624;11.760;2023-06-22T03:04:34;23.55;75.19
71649;SHT31;70112;45.624;11.760;2023-06-22T03:07:01;23.52;75.34
71649;SHT31;70112;45.624;11.760;2023-06-22T03:09:29;23.48;75.67
71649;SHT31;70112;45.624;11.760;2023-06-22T03:11:55;23.44;75.75
71649;SHT31;70112;45.624;11.760;2023-06-22T03:14:21;23.44;75.75
71649;SHT31;70112;45.624;11.760;2023-06-22T03:16:47;23.43;75.87
71649;SHT31;70112;45.624;11.760;2023-06-22T03:19:12;23.38;76.02
71649;SHT31;70112;45.624;11.760;2023-06-22T03:21:39;23.30;76.11
71649;SHT31;70112;45.624;11.760;2023-06-22T03:24:05;23.22;76.22
71649;SHT31;70112;45.624;11.760;2023-06-22T03:26:32;23.07;76.39
71649;SHT31;70112;45.624;11.760;2023-06-22T03:28:59;22.96;76.53
71649;SHT31;70112;45.624;11.760;2023-06-22T03:31:25;22.93;76.59
71649;SHT31;70112;45.624;11.760;2023-06-22T03:33:50;22.95;76.73
71649;SHT31;70112;45.624;11.760;2023-06-22T03:36:16;22.95;76.89
71649;SHT31;70112;45.624;11.760;2023-06-22T03:38:48;22.92;77.19
71649;SHT31;70112;45.624;11.760;2023-06-22T03:41:15;22.93;77.22
71649;SHT31;70112;45.624;11.760;2023-06-22T03:43:41;22.94;77.19
71649;SHT31;70112;45.624;11.760;2023-06-22T03:46:07;22.90;77.26
71649;SHT31;70112;45.624;11.760;2023-06-22T03:48:32;22.88;77.27
71649;SHT31;70112;45.624;11.760;2023-06-22T03:51:01;22.95;77.20
71649;SHT31;70112;45.624;11.760;2023-06-22T03:53:30;23.00;77.16
71649;SHT31;70112;45.624;11.760;2023-06-22T03:55:56;23.08;77.15
71649;SHT31;70112;45.624;11.760;2023-06-22T03:58:22;23.11;77.18
71649;SHT31;70112;45.624;11.760;2023-06-22T04:00:48;23.08;77.26
71649;SHT31;70112;45.624;11.760;2023-06-22T04:03:16;23.06;77.31
71649;SHT31;70112;45.624;11.760;2023-06-22T04:05:43;23.11;77.30
71649;SHT31;70112;45.624;11.760;2023-06-22T04:08:12;23.18;77.27
71649;SHT31;70112;45.624;11.760;2023-06-22T04:10:39;23.24;77.17
71649;SHT31;70112;45.624;11.760;2023-06-22T04:13:04;23.32;77.10
71649;SHT31;70112;45.624;11.760;2023-06-22T04:15:30;23.39;77.02
71649;SHT31;70112;45.624;11.760;2023-06-22T04:17:55;23.39;77.07
71649;SHT31;70112;45.624;11.760;2023-06-22T04:20:22;23.34;77.00
71649;SHT31;70112;45.624;11.760;2023-06-22T04:22:50;23.37;77.00
71649;SHT31;70112;45.624;11.760;2023-06-22T04:25:20;23.41;77.08
71649;SHT31;70112;45.624;11.760;2023-06-22T04:27:47;23.40;77.27
71649;SHT31;70112;45.624;11.760;2023-06-22T04:30:13;23.39;77.49
71649;SHT31;70112;45.624;11.760;2023-06-22T04:32:43;23.26;77.77
71649;SHT31;70112;45.624;11.760;2023-06-22T04:35:09;23.18;77.88
71649;SHT31;70112;45.624;11.760;2023-06-22T04:37:36;23.20;77.70
71649;SHT31;70112;45.624;11.760;2023-06-22T04:40:02;23.28;77.59
71649;SHT31;70112;45.624;11.760;2023-06-22T04:42:29;23.39;77.51
71649;SHT31;70112;45.624;11.760;2023-06-22T04:44:55;23.53;77.40
71649;SHT31;70112;45.624;11.760;2023-06-22T04:47:21;23.62;77.35
71649;SHT31;70112;45.624;11.760;2023-06-22T04:49:46;23.78;77.27
71649;SHT31;70112;45.624;11.760;2023-06-22T04:52:13;23.96;77.06
71649;SHT31;70112;45.624;11.760;2023-06-22T04:54:45;24.11;76.92
71649;SHT31;70112;45.624;11.760;2023-06-22T04:57:12;24.19;76.99
71649;SHT31;70112;45.624;11.760;2023-06-22T04:59:39;24.29;76.87
71649;SHT31;70112;45.624;11.760;2023-06-22T05:02:06;24.45;76.68
71649;SHT31;70112;45.624;11.760;2023-06-22T05:04:33;24.65;76.39
71649;SHT31;70112;45.624;11.760;2023-06-22T05:07:06;24.80;76.26
71649;SHT31;70112;45.624;11.760;2023-06-22T05:09:31;24.97;76.36
71649;SHT31;70112;45.624;11.760;2023-06-22T05:11:58;25.15;76.13
71649;SHT31;70112;45.624;11.760;2023-06-22T05:14:27;25.35;75.66
71649;SHT31;70112;45.624;11.760;2023-06-22T05:16:52;25.53;75.11
71649;SHT31;70112;45.624;11.760;2023-06-22T05:19:18;25.70;74.45
71649;SHT31;70112;45.624;11.760;2023-06-22T05:21:44;25.86;73.74
71649;SHT31;70112;45.624;11.760;2023-06-22T05:24:09;25.96;73.58
71649;SHT31;70112;45.624;11.760;2023-06-22T05:26:35;26.09;73.19
71649;SHT31;70112;45.624;11.760;2023-06-22T05:29:00;26.24;72.72
71649;SHT31;70112;45.624;11.760;2023-06-22T05:31:28;26.36;72.34
71649;SHT31;70112;45.624;11.760;2023-06-22T05:33:54;26.46;72.29
71649;SHT31;70112;45.624;11.760;2023-06-22T05:36:21;26.56;72.52
71649;SHT31;70112;45.624;11.760;2023-06-22T05:38:50;26.65;72.44
71649;SHT31;70112;45.624;11.760;2023-06-22T05:41:21;26.72;72.07
71649;SHT31;70112;45.624;11.760;2023-06-22T05:43:46;26.80;72.08
71649;SHT31;70112;45.624;11.760;2023-06-22T05:46:12;26.88;71.92
71649;SHT31;70112;45.624;11.760;2023-06-22T05:48:38;26.97;71.94
71649;SHT31;70112;45.624;11.760;2023-06-22T05:51:03;27.12;71.88
71649;SHT31;70112;45.624;11.760;2023-06-22T05:53:28;27.36;71.40
71649;SHT31;70112;45.624;11.760;2023-06-22T05:55:54;27.62;70.86
71649;SHT31;70112;45.624;11.760;2023-06-22T05:58:20;27.85;69.83
71649;SHT31;70112;45.624;11.760;2023-06-22T06:00:45;28.13;68.81
71649;SHT31;70112;45.624;11.760;2023-06-22T06:03:11;28.31;68.00
71649;SHT31;70112;45.624;11.760;2023-06-22T06:05:37;28.46;67.56
71649;SHT31;70112;45.624;11.760;2023-06-22T06:08:04;28.64;66.94
71649;SHT31;70112;45.624;11.760;2023-06-22T06:10:31;28.81;66.36
71649;SHT31;70112;45.624;11.760;2023-06-22T06:12:58;29.01;65.57
71649;SHT31;70112;45.624;11.760;2023-06-22T06:15:27;29.18;64.67
71649;SHT31;70112;45.624;11.760;2023-06-22T06:17:53;29.31;63.92
71649;SHT31;70112;45.624;11.760;2023-06-22T06:20:23;29.47;63.15
71649;SHT31;70112;45.624;11.760;2023-06-22T06:22:51;29.64;62.73
71649;SHT31;70112;45.624;11.760;2023-06-22T06:25:16;29.82;62.77
71649;SHT31;70112;45.624;11.760;2023-06-22T06:27:44;30.13;62.19
71649;SHT31;70112;45.624;11.760;2023-06-22T06:30:11;30.41;61.41
71649;SHT31;70112;45.624;11.760;2023-06-22T06:32:38;30.64;60.17
71649;SHT31;70112;45.624;11.760;2023-06-22T06:35:07;30.90;59.68
71649;SHT31;70112;45.624;11.760;2023-06-22T06:37:38;31.09;59.06
71649;SHT31;70112;45.624;11.760;2023-06-22T06:40:06;31.28;58.40
71649;SHT31;70112;45.624;11.760;2023-06-22T06:42:35;31.33;57.99
71649;SHT31;70112;45.624;11.760;2023-06-22T06:45:05;31.35;57.48
71649;SHT31;70112;45.624;11.760;2023-06-22T06:47:34;31.43;57.20
71649;SHT31;70112;45.624;11.760;2023-06-22T06:50:00;31.47;56.81
71649;SHT31;70112;45.624;11.760;2023-06-22T06:52:26;31.50;56.33
71649;SHT31;70112;45.624;11.760;2023-06-22T06:54:51;31.53;55.91
71649;SHT31;70112;45.624;11.760;2023-06-22T06:57:19;31.64;55.47
71649;SHT31;70112;45.624;11.760;2023-06-22T06:59:45;31.85;54.89
71649;SHT31;70112;45.624;11.760;2023-06-22T07:02:11;32.19;54.39
71649;SHT31;70112;45.624;11.760;2023-06-22T07:04:36;32.60;53.91
71649;SHT31;70112;45.624;11.760;2023-06-22T07:07:02;33.08;53.36
71649;SHT31;70112;45.624;11.760;2023-06-22T07:09:28;33.35;52.64
71649;SHT31;70112;45.624;11.760;2023-06-22T07:11:53;33.35;52.57
71649;SHT31;70112;45.624;11.760;2023-06-22T07:14:19;33.31;52.41
71649;SHT31;70112;45.624;11.760;2023-06-22T07:16:44;33.21;52.25
71649;SHT31;70112;45.624;11.760;2023-06-22T07:19:11;33.19;51.78
71649;SHT31;70112;45.624;11.760;2023-06-22T07:21:38;33.13;52.20
71649;SHT31;70112;45.624;11.760;2023-06-22T07:24:04;33.15;52.67
71649;SHT31;70112;45.624;11.760;2023-06-22T07:26:32;33.07;52.75
71649;SHT31;70112;45.624;11.760;2023-06-22T07:28:58;33.01;53.39
71649;SHT31;70112;45.624;11.760;2023-06-22T07:31:24;32.98;53.92
71649;SHT31;70112;45.624;11.760;2023-06-22T07:33:50;32.93;53.95
71649;SHT31;70112;45.624;11.760;2023-06-22T07:36:16;32.84;54.46
71649;SHT31;70112;45.624;11.760;2023-06-22T07:38:42;32.77;54.21
71649;SHT31;70112;45.624;11.760;2023-06-22T07:41:08;32.71;53.97
71649;SHT31;70112;45.624;11.760;2023-06-22T07:43:33;32.61;54.10
71649;SHT31;70112;45.624;11.760;2023-06-22T07:46:02;32.58;54.48
71649;SHT31;70112;45.624;11.760;2023-06-22T07:48:29;32.60;54.39
71649;SHT31;70112;45.624;11.760;2023-06-22T07:50:55;32.60;54.33
71649;SHT31;70112;45.624;11.760;2023-06-22T07:53:21;32.56;54.47
71649;SHT31;70112;45.624;11.760;2023-06-22T07:55:48;32.54;54.52
71649;SHT31;70112;45.624;11.760;2023-06-22T07:58:17;32.57;54.49
71649;SHT31;70112;45.624;11.760;2023-06-22T08:00:44;32.59;54.77
71649;SHT31;70112;45.624;11.760;2023-06-22T08:03:09;32.62;54.91
71649;SHT31;70112;45.624;11.760;2023-06-22T08:05:35;32.62;55.14
71649;SHT31;70112;45.624;11.760;2023-06-22T08:08:00;32.69;55.14
71649;SHT31;70112;45.624;11.760;2023-06-22T08:10:26;32.79;54.92
71649;SHT31;70112;45.624;11.760;2023-06-22T08:12:51;32.97;54.44
71649;SHT31;70112;45.624;11.760;2023-06-22T08:15:17;33.08;54.34
71649;SHT31;70112;45.624;11.760;2023-06-22T08:17:44;33.11;54.40
71649;SHT31;70112;45.624;11.760;2023-06-22T08:20:11;33.15;54.78
71649;SHT31;70112;45.624;11.760;2023-06-22T08:22:37;33.26;54.71
71649;SHT31;70112;45.624;11.760;2023-06-22T08:25:04;33.30;54.57
71649;SHT31;70112;45.624;11.760;2023-06-22T08:27:31;33.32;54.03
71649;SHT31;70112;45.624;11.760;2023-06-22T08:30:00;33.33;53.72
71649;SHT31;70112;45.624;11.760;2023-06-22T08:32:29;33.38;53.42
71649;SHT31;70112;45.624;11.760;2023-06-22T08:34:57;33.40;53.64
71649;SHT31;70112;45.624;11.760;2023-06-22T08:37:23;33.48;53.84
71649;SHT31;70112;45.624;11.760;2023-06-22T08:39:56;33.53;53.08
71649;SHT31;70112;45.624;11.760;2023-06-22T08:42:23;33.54;52.85
71649;SHT31;70112;45.624;11.760;2023-06-22T08:44:50;33.52;52.94
71649;SHT31;70112;45.624;11.760;2023-06-22T08:47:15;33.50;53.19
71649;SHT31;70112;45.624;11.760;2023-06-22T08:49:40;33.44;53.49
71649;SHT31;70112;45.624;11.760;2023-06-22T08:52:06;33.47;53.58
71649;SHT31;70112;45.624;11.760;2023-06-22T08:54:32;33.57;53.66
71649;SHT31;70112;45.624;11.760;2023-06-22T08:56:59;33.68;53.98
71649;SHT31;70112;45.624;11.760;2023-06-22T08:59:26;33.80;53.62
71649;SHT31;70112;45.624;11.760;2023-06-22T09:01:52;33.85;53.43
71649;SHT31;70112;45.624;11.760;2023-06-22T09:04:17;33.92;52.44
71649;SHT31;70112;45.624;11.760;2023-06-22T09:06:43;33.92;51.84
71649;SHT31;70112;45.624;11.760;2023-06-22T09:09:10;33.99;51.46
71649;SHT31;70112;45.624;11.760;2023-06-22T09:11:37;34.13;50.96
71649;SHT31;70112;45.624;11.760;2023-06-22T09:14:03;34.24;50.76
71649;SHT31;70112;45.624;11.760;2023-06-22T09:16:29;34.35;50.93
71649;SHT31;70112;45.624;11.760;2023-06-22T09:18:55;34.52;50.01
71649;SHT31;70112;45.624;11.760;2023-06-22T09:21:20;34.68;48.75
71649;SHT31;70112;45.624;11.760;2023-06-22T09:23:46;34.77;48.52
71649;SHT31;70112;45.624;11.760;2023-06-22T09:26:15;34.96;47.54
71649;SHT31;70112;45.624;11.760;2023-06-22T09:28:41;35.28;47.14
71649;SHT31;70112;45.624;11.760;2023-06-22T09:31:06;35.85;46.85
71649;SHT31;70112;45.624;11.760;2023-06-22T09:33:32;36.77;45.57
71649;SHT31;70112;45.624;11.760;2023-06-22T09:35:57;37.79;44.54
71649;SHT31;70112;45.624;11.760;2023-06-22T09:38:23;38.63;43.21
71649;SHT31;70112;45.624;11.760;2023-06-22T09:40:49;39.77;40.50
71649;SHT31;70112;45.624;11.760;2023-06-22T09:43:14;40.90;39.45
71649;SHT31;70112;45.624;11.760;2023-06-22T09:45:40;42.01;38.37
71649;SHT31;70112;45.624;11.760;2023-06-22T09:48:05;43.21;36.65
71649;SHT31;70112;45.624;11.760;2023-06-22T09:50:31;44.27;34.92
71649;SHT31;70112;45.624;11.760;2023-06-22T09:52:56;45.07;33.80
71649;SHT31;70112;45.624;11.760;2023-06-22T09:55:22;45.87;32.53
71649;SHT31;70112;45.624;11.760;2023-06-22T09:57:49;46.46;31.79
71649;SHT31;70112;45.624;11.760;2023-06-22T10:00:18;47.27;30.71
71649;SHT31;70112;45.624;11.760;2023-06-22T10:02:44;47.99;29.78
71649;SHT31;70112;45.624;11.760;2023-06-22T10:05:10;48.62;28.72
71649;SHT31;70112;45.624;11.760;2023-06-22T10:07:36;48.95;27.94
71649;SHT31;70112;45.624;11.760;2023-06-22T10:10:07;49.17;27.39
71649;SHT31;70112;45.624;11.760;2023-06-22T10:12:54;48.92;26.46
71649;SHT31;70112;45.624;11.760;2023-06-22T10:15:22;48.25;26.78
71649;SHT31;70112;45.624;11.760;2023-06-22T10:17:48;47.69;27.31
71649;SHT31;70112;45.624;11.760;2023-06-22T10:20:14;47.68;27.27
71649;SHT31;70112;45.624;11.760;2023-06-22T10:22:40;47.96;27.09
71649;SHT31;70112;45.624;11.760;2023-06-22T10:25:11;48.58;26.92
71649;SHT31;70112;45.624;11.760;2023-06-22T10:27:38;49.43;25.95
71649;SHT31;70112;45.624;11.760;2023-06-22T10:30:08;50.01;25.72
71649;SHT31;70112;45.624;11.760;2023-06-22T10:32:35;50.16;24.87
71649;SHT31;70112;45.624;11.760;2023-06-22T10:35:01;49.69;24.79
71649;SHT31;70112;45.624;11.760;2023-06-22T10:37:27;49.92;25.21
71649;SHT31;70112;45.624;11.760;2023-06-22T10:39:55;50.61;24.66
71649;SHT31;70112;45.624;11.760;2023-06-22T10:42:24;51.29;24.24
71649;SHT31;70112;45.624;11.760;2023-06-22T10:44:49;52.12;23.61
71649;SHT31;70112;45.624;11.760;2023-06-22T10:47:21;52.76;22.80
71649;SHT31;70112;45.624;11.760;2023-06-22T10:56:35;53.31;22.47
71649;SHT31;70112;45.624;11.760;2023-06-22T11:03:25;53.78;20.58
71649;SHT31;70112;45.624;11.760;2023-06-22T11:17:02;54.38;20.65
71649;SHT31;70112;45.624;11.760;2023-06-22T11:23:47;54.74;19.93
71649;SHT31;70112;45.624;11.760;2023-06-22T11:33:52;54.90;19.31
71649;SHT31;70112;45.624;11.760;2023-06-22T11:36:18;55.15;19.70
71649;SHT31;70112;45.624;11.760;2023-06-22T11:41:41;55.38;18.53
71649;SHT31;70112;45.624;11.760;2023-06-22T11:44:23;54.71;18.89
71649;SHT31;70112;45.624;11.760;2023-06-22T11:46:52;53.67;19.70
71649;SHT31;70112;45.624;11.760;2023-06-22T11:49:17;52.53;20.53
71649;SHT31;70112;45.624;11.760;2023-06-22T11:54:43;49.33;22.89
71649;SHT31;70112;45.624;11.760;2023-06-22T11:57:08;47.53;24.52
71649;SHT31;70112;45.624;11.760;2023-06-22T11:59:33;46.58;25.04
71649;SHT31;70112;45.624;11.760;2023-06-22T12:01:59;45.65;25.31
71649;SHT31;70112;45.624;11.760;2023-06-22T12:04:24;44.92;25.96
71649;SHT31;70112;45.624;11.760;2023-06-22T12:06:50;44.26;27.00
71649;SHT31;70112;45.624;11.760;2023-06-22T12:09:15;43.58;27.40
71649;SHT31;70112;45.624;11.760;2023-06-22T12:11:41;42.92;28.24
71649;SHT31;70112;45.624;11.760;2023-06-22T12:14:07;42.28;29.36
71649;SHT31;70112;45.624;11.760;2023-06-22T12:16:32;41.62;30.74
71649;SHT31;70112;45.624;11.760;2023-06-22T12:18:58;41.06;31.21
71649;SHT31;70112;45.624;11.760;2023-06-22T12:21:23;40.61;32.23
71649;SHT31;70112;45.624;11.760;2023-06-22T12:23:49;40.29;31.68
71649;SHT31;70112;45.624;11.760;2023-06-22T12:26:14;39.91;31.85
71649;SHT31;70112;45.624;11.760;2023-06-22T12:28:40;39.59;32.61
71649;SHT31;70112;45.624;11.760;2023-06-22T12:31:05;39.26;32.74
71649;SHT31;70112;45.624;11.760;2023-06-22T12:33:31;38.94;33.69
71649;SHT31;70112;45.624;11.760;2023-06-22T12:35:57;38.67;34.80
71649;SHT31;70112;45.624;11.760;2023-06-22T12:38:22;38.29;34.33
71649;SHT31;70112;45.624;11.760;2023-06-22T12:40:50;37.97;34.99
71649;SHT31;70112;45.624;11.760;2023-06-22T12:43:17;37.76;35.52
71649;SHT31;70112;45.624;11.760;2023-06-22T12:45:43;37.60;35.42
71649;SHT31;70112;45.624;11.760;2023-06-22T12:48:08;37.50;36.10
71649;SHT31;70112;45.624;11.760;2023-06-22T12:50:34;37.40;36.63
71649;SHT31;70112;45.624;11.760;2023-06-22T12:53:00;37.32;36.79
71649;SHT31;70112;45.624;11.760;2023-06-22T12:55:27;37.17;36.77
71649;SHT31;70112;45.624;11.760;2023-06-22T12:57:53;37.04;37.22
71649;SHT31;70112;45.624;11.760;2023-06-22T13:00:18;36.97;36.89
71649;SHT31;70112;45.624;11.760;2023-06-22T13:02:44;36.93;37.00
71649;SHT31;70112;45.624;11.760;2023-06-22T13:05:10;36.87;37.48
71649;SHT31;70112;45.624;11.760;2023-06-22T13:07:36;36.80;37.22
71649;SHT31;70112;45.624;11.760;2023-06-22T13:10:02;36.72;37.11
71649;SHT31;70112;45.624;11.760;2023-06-22T13:12:28;36.64;36.71
71649;SHT31;70112;45.624;11.760;2023-06-22T13:14:53;36.44;36.88
71649;SHT31;70112;45.624;11.760;2023-06-22T13:17:19;36.23;37.29
71649;SHT31;70112;45.624;11.760;2023-06-22T13:19:46;36.14;37.99
71649;SHT31;70112;45.624;11.760;2023-06-22T13:24:56;36.11;39.79
71649;SHT31;70112;45.624;11.760;2023-06-22T13:27:24;36.04;40.00
71649;SHT31;70112;45.624;11.760;2023-06-22T13:29:50;36.03;40.50
71649;SHT31;70112;45.624;11.760;2023-06-22T13:32:16;36.01;40.81
71649;SHT31;70112;45.624;11.760;2023-06-22T13:34:43;35.98;41.34
71649;SHT31;70112;45.624;11.760;2023-06-22T13:37:09;35.95;41.09
71649;SHT31;70112;45.624;11.760;2023-06-22T13:39:34;35.87;40.86
71649;SHT31;70112;45.624;11.760;2023-06-22T13:42:00;35.81;40.84
71649;SHT31;70112;45.624;11.760;2023-06-22T13:44:25;35.77;40.74
71649;SHT31;70112;45.624;11.760;2023-06-22T13:46:56;35.74;40.76
71649;SHT31;70112;45.624;11.760;2023-06-22T13:49:22;35.69;41.13
71649;SHT31;70112;45.624;11.760;2023-06-22T13:51:48;35.62;41.53
71649;SHT31;70112;45.624;11.760;2023-06-22T13:54:14;35.55;41.52
71649;SHT31;70112;45.624;11.760;2023-06-22T13:56:40;35.54;41.56
71649;SHT31;70112;45.624;11.760;2023-06-22T13:59:06;35.55;42.54
71649;SHT31;70112;45.624;11.760;2023-06-22T14:01:35;35.53;42.82
71649;SHT31;70112;45.624;11.760;2023-06-22T14:04:01;35.52;43.27
71649;SHT31;70112;45.624;11.760;2023-06-22T14:06:27;35.50;43.06
71649;SHT31;70112;45.624;11.760;2023-06-22T14:08:53;35.45;42.91
71649;SHT31;70112;45.624;11.760;2023-06-22T14:11:18;35.46;43.12
71649;SHT31;70112;45.624;11.760;2023-06-22T14:13:44;35.44;43.98
71649;SHT31;70112;45.624;11.760;2023-06-22T14:16:09;35.41;44.24
71649;SHT31;70112;45.624;11.760;2023-06-22T14:18:35;35.41;44.66
71649;SHT31;70112;45.624;11.760;2023-06-22T14:21:00;35.42;44.88
71649;SHT31;70112;45.624;11.760;2023-06-22T14:23:26;35.42;44.55
71649;SHT31;70112;45.624;11.760;2023-06-22T14:25:52;35.42;44.88
71649;SHT31;70112;45.624;11.760;2023-06-22T14:28:18;35.40;44.91
71649;SHT31;70112;45.624;11.760;2023-06-22T14:30:44;35.37;44.62
71649;SHT31;70112;45.624;11.760;2023-06-22T14:33:09;35.36;44.49
71649;SHT31;70112;45.624;11.760;2023-06-22T14:35:36;35.28;43.87
71649;SHT31;70112;45.624;11.760;2023-06-22T14:38:01;35.22;44.44
71649;SHT31;70112;45.624;11.760;2023-06-22T14:40:27;35.20;44.32
71649;SHT31;70112;45.624;11.760;2023-06-22T14:50:13;35.25;44.32
71649;SHT31;70112;45.624;11.760;2023-06-22T14:52:39;35.22;44.16
71649;SHT31;70112;45.624;11.760;2023-06-22T14:55:05;35.22;43.68
71649;SHT31;70112;45.624;11.760;2023-06-22T14:57:31;35.22;43.04
71649;SHT31;70112;45.624;11.760;2023-06-22T14:59:56;35.24;43.58
71649;SHT31;70112;45.624;11.760;2023-06-22T15:02:22;35.27;42.94
71649;SHT31;70112;45.624;11.760;2023-06-22T15:04:47;35.26;42.64
71649;SHT31;70112;45.624;11.760;2023-06-22T15:07:14;35.19;42.80
71649;SHT31;70112;45.624;11.760;2023-06-22T15:09:39;35.11;42.88
71649;SHT31;70112;45.624;11.760;2023-06-22T15:12:07;34.96;43.28
71649;SHT31;70112;45.624;11.760;2023-06-22T15:14:37;34.83;43.45
71649;SHT31;70112;45.624;11.760;2023-06-22T15:17:05;34.70;43.51
71649;SHT31;70112;45.624;11.760;2023-06-22T15:19:34;34.58;43.86
71649;SHT31;70112;45.624;11.760;2023-06-22T15:22:02;34.50;44.03
71649;SHT31;70112;45.624;11.760;2023-06-22T15:24:31;34.39;43.90
71649;SHT31;70112;45.624;11.760;2023-06-22T15:26:58;34.30;44.48
71649;SHT31;70112;45.624;11.760;2023-06-22T15:29:23;34.21;44.39
71649;SHT31;70112;45.624;11.760;2023-06-22T15:31:49;34.16;43.98
71649;SHT31;70112;45.624;11.760;2023-06-22T15:34:14;34.07;43.42
71649;SHT31;70112;45.624;11.760;2023-06-22T15:36:40;34.03;43.66
71649;SHT31;70112;45.624;11.760;2023-06-22T15:39:05;34.05;44.36
71649;SHT31;70112;45.624;11.760;2023-06-22T15:41:31;34.08;44.29
71649;SHT31;70112;45.624;11.760;2023-06-22T15:43:57;34.04;44.66
71649;SHT31;70112;45.624;11.760;2023-06-22T15:46:23;33.98;44.76
71649;SHT31;70112;45.624;11.760;2023-06-22T15:48:49;33.90;44.26
71649;SHT31;70112;45.624;11.760;2023-06-22T15:51:14;33.82;44.01
71649;SHT31;70112;45.624;11.760;2023-06-22T15:53:40;33.78;44.35
71649;SHT31;70112;45.624;11.760;2023-06-22T15:56:06;33.73;44.36
71649;SHT31;70112;45.624;11.760;2023-06-22T15:58:34;33.63;44.42
71649;SHT31;70112;45.624;11.760;2023-06-22T16:01:01;33.55;45.08
71649;SHT31;70112;45.624;11.760;2023-06-22T16:03:28;33.47;45.06
71649;SHT31;70112;45.624;11.760;2023-06-22T16:05:54;33.34;44.95
71649;SHT31;70112;45.624;11.760;2023-06-22T16:08:20;33.23;45.19